Time;durP1;ratioP1;P1;durP2;ratioP2;P2;SDS_P1;SDS_P2;PMS_P1;PMS_P2;Temp;Humidity;BMP_temperature;BMP_pressure;BME280_temperature;BME280_humidity;BME280_pressure;Samples;Min_cycle;Max_cycle;Signal;HPM_P1;HPM_P2
2021/12/25 00:01:18;;;;;;;22.40;15.98;;;;;;;;;;5020462;28;20048;-56
2021/12/25 00:03:43;;;;;;;29.25;19.23;;;;;;;;;;5018155;28;20033;-55
2021/12/25 00:06:09;;;;;;;31.20;19.20;;;;;;;;;;5022515;28;20116;-55
2021/12/25 00:08:35;;;;;;;24.80;17.38;;;;;;;;;;5023010;28;20041;-57
2021/12/25 00:11:04;;;;;;;24.20;16.55;;;;;;;;;;5023458;28;20034;-54
2021/12/25 00:13:31;;;;;;;19.30;14.55;;;;;;;;;;5024926;28;20458;-52
2021/12/25 00:15:57;;;;;;;21.55;14.32;;;;;;;;;;5020572;28;20032;-54
2021/12/25 00:18:22;;;;;;;18.15;14.00;;;;;;;;;;5023216;28;20403;-56
2021/12/25 00:20:49;;;;;;;19.80;14.15;;;;;;;;;;5020720;28;20021;-54
2021/12/25 00:23:14;;;;;;;19.60;13.18;;;;;;;;;;5018261;28;20390;-56
2021/12/25 00:25:49;;;;;;;23.00;14.15;;;;;;;;;;5018609;28;20030;-57
2021/12/25 00:31:04;;;;;;;19.77;11.88;;;;;;;;;;5027153;28;20033;-54
2021/12/25 00:36:15;;;;;;;16.95;12.02;;;;;;;;;;5020720;28;20721;-57
2021/12/25 00:38:42;;;;;;;16.92;11.50;;;;;;;;;;5017691;28;20038;-56
2021/12/25 00:41:08;;;;;;;16.15;11.35;;;;;;;;;;5019093;28;20117;-53
2021/12/25 00:43:34;;;;;;;19.83;11.52;;;;;;;;;;5015096;28;20064;-56
2021/12/25 00:46:00;;;;;;;18.92;10.75;;;;;;;;;;5021370;28;20065;-57
2021/12/25 00:48:27;;;;;;;14.35;10.50;;;;;;;;;;5023136;28;20083;-54
2021/12/25 00:50:53;;;;;;;18.50;11.25;;;;;;;;;;5017728;28;20034;-57
2021/12/25 00:53:19;;;;;;;16.88;10.48;;;;;;;;;;5021618;28;20037;-55
2021/12/25 00:55:45;;;;;;;20.40;12.38;;;;;;;;;;5020611;28;20037;-57
2021/12/25 00:58:11;;;;;;;15.20;11.02;;;;;;;;;;5023703;28;20055;-57
2021/12/25 01:00:38;;;;;;;25.75;12.32;;;;;;;;;;5018694;28;20120;-54
2021/12/25 01:03:05;;;;;;;15.93;11.80;;;;;;;;;;5016925;28;20026;-57
2021/12/25 01:05:33;;;;;;;18.60;11.93;;;;;;;;;;5020718;28;20387;-56
2021/12/25 01:07:59;;;;;;;20.75;11.70;;;;;;;;;;5025541;28;20068;-57
2021/12/25 01:10:25;;;;;;;15.98;11.75;;;;;;;;;;5026392;28;20072;-54
2021/12/25 01:13:09;;;;;;;17.13;11.57;;;;;;;;;;5026055;28;20112;-53
2021/12/25 01:18:50;;;;;;;14.07;10.50;;;;;;;;;;5017205;28;20592;-54
2021/12/25 01:50:14;;;;;;;13.18;9.98;;;;;;;;;;5026222;28;20474;-57
2021/12/25 01:52:40;;;;;;;14.30;9.70;;;;;;;;;;5026589;28;20087;-53
2021/12/25 01:55:11;;;;;;;19.17;11.88;;;;;;;;;;5022177;28;20034;-52
2021/12/25 01:57:38;;;;;;;19.77;10.38;;;;;;;;;;5025599;28;20025;-56
2021/12/25 02:00:12;;;;;;;14.05;11.07;;;;;;;;;;5026435;28;20116;-52
2021/12/25 02:02:38;;;;;;;18.48;11.45;;;;;;;;;;5051911;28;21037;-57
2021/12/25 02:05:04;;;;;;;19.73;11.95;;;;;;;;;;5027011;28;20045;-55
2021/12/25 02:07:30;;;;;;;15.02;10.93;;;;;;;;;;5022642;28;20036;-54
2021/12/25 02:09:56;;;;;;;16.38;11.60;;;;;;;;;;5023783;28;20247;-56
2021/12/25 02:12:22;;;;;;;17.50;10.93;;;;;;;;;;5025203;28;20167;-54
2021/12/25 02:14:49;;;;;;;22.40;11.90;;;;;;;;;;5025358;28;20030;-53
2021/12/25 02:17:25;;;;;;;19.48;12.02;;;;;;;;;;5024865;28;20033;-51
2021/12/25 02:20:17;;;;;;;16.88;11.40;;;;;;;;;;5017255;28;20372;-52
2021/12/25 02:22:45;;;;;;;23.27;13.20;;;;;;;;;;5018275;28;20038;-55
2021/12/25 02:25:11;;;;;;;22.52;12.55;;;;;;;;;;5026449;28;20102;-50
2021/12/25 02:27:37;;;;;;;19.23;12.35;;;;;;;;;;5023564;28;20061;-56
2021/12/25 02:30:05;;;;;;;30.67;13.40;;;;;;;;;;5026943;28;20072;-51
2021/12/25 02:32:31;;;;;;;23.80;12.73;;;;;;;;;;5023484;28;20395;-52
2021/12/25 02:34:56;;;;;;;19.05;12.40;;;;;;;;;;5027349;28;20055;-56
2021/12/25 02:37:22;;;;;;;25.50;11.77;;;;;;;;;;5027183;28;20037;-52
2021/12/25 02:39:48;;;;;;;21.20;11.20;;;;;;;;;;5023259;28;20090;-55
2021/12/25 02:42:14;;;;;;;22.65;11.70;;;;;;;;;;5017315;28;20040;-56
2021/12/25 02:44:40;;;;;;;23.45;11.20;;;;;;;;;;5029260;28;20394;-54
2021/12/25 02:47:09;;;;;;;18.08;11.85;;;;;;;;;;5025554;28;20025;-57
2021/12/25 02:49:36;;;;;;;19.88;11.40;;;;;;;;;;5026330;28;20126;-57
2021/12/25 02:52:02;;;;;;;21.20;11.65;;;;;;;;;;5026818;28;20037;-56
2021/12/25 02:54:28;;;;;;;24.13;11.13;;;;;;;;;;5023260;28;20037;-55
2021/12/25 02:56:54;;;;;;;23.17;11.52;;;;;;;;;;5021278;28;20018;-57
2021/12/25 02:59:19;;;;;;;22.60;12.13;;;;;;;;;;5025247;28;20470;-53
2021/12/25 03:01:45;;;;;;;20.02;11.35;;;;;;;;;;5026985;28;20068;-53
2021/12/25 03:04:11;;;;;;;22.40;11.48;;;;;;;;;;5023761;28;20026;-58
2021/12/25 03:06:37;;;;;;;22.38;12.15;;;;;;;;;;5025045;28;20049;-55
2021/12/25 03:09:05;;;;;;;25.52;12.20;;;;;;;;;;5018838;28;20143;-53
2021/12/25 03:11:31;;;;;;;16.58;10.75;;;;;;;;;;5027089;28;20022;-56
2021/12/25 03:14:00;;;;;;;24.13;10.65;;;;;;;;;;5023339;28;20503;-53
2021/12/25 03:16:26;;;;;;;18.90;10.80;;;;;;;;;;5020796;28;20037;-57
2021/12/25 03:18:54;;;;;;;15.70;9.15;;;;;;;;;;5020611;28;20128;-52
2021/12/25 03:21:21;;;;;;;16.98;8.95;;;;;;;;;;5018460;28;20025;-51
2021/12/25 03:23:49;;;;;;;14.23;8.48;;;;;;;;;;5024152;28;20039;-57
2021/12/25 03:26:15;;;;;;;16.80;9.30;;;;;;;;;;5028388;28;20116;-52
2021/12/25 03:28:44;;;;;;;11.30;8.27;;;;;;;;;;5022363;28;20124;-57
2021/12/25 03:31:17;;;;;;;17.10;8.20;;;;;;;;;;5020698;28;20037;-52
2021/12/25 03:33:45;;;;;;;9.95;7.80;;;;;;;;;;5026235;28;20030;-55
2021/12/25 03:36:11;;;;;;;10.55;7.80;;;;;;;;;;5026502;28;20076;-57
2021/12/25 03:38:37;;;;;;;18.00;7.68;;;;;;;;;;5028293;28;20660;-55
2021/12/25 03:41:06;;;;;;;10.27;7.68;;;;;;;;;;5025563;28;20120;-54
2021/12/25 03:43:34;;;;;;;11.63;8.48;;;;;;;;;;5025993;28;20026;-57
2021/12/25 03:46:00;;;;;;;10.20;7.35;;;;;;;;;;5022077;28;20647;-55
2021/12/25 03:57:37;;;;;;;8.77;7.43;;;;;;;;;;5024932;28;20029;-58
2021/12/25 03:59:13;;;;;;;15.32;7.22;;;;;;;;;;5023532;28;20150;-55
2021/12/25 04:04:13;;;;;;;7.80;6.68;;;;;;;;;;5022267;28;20087;-57
2021/12/25 04:06:48;;;;;;;8.95;6.45;;;;;;;;;;5019919;28;20198;-54
2021/12/25 04:09:29;;;;;;;9.27;6.25;;;;;;;;;;5024176;28;20116;-56
2021/12/25 04:11:59;;;;;;;14.65;6.63;;;;;;;;;;5023914;28;20034;-58
2021/12/25 04:14:25;;;;;;;6.38;5.80;;;;;;;;;;5024174;28;20385;-58
2021/12/25 04:16:50;;;;;;;7.68;5.88;;;;;;;;;;5019366;28;20040;-56
2021/12/25 04:19:17;;;;;;;11.93;6.10;;;;;;;;;;5022746;28;20115;-58
2021/12/25 04:24:18;;;;;;;8.25;6.22;;;;;;;;;;5026257;28;20046;-57
2021/12/25 04:26:45;;;;;;;6.20;5.47;;;;;;;;;;5014804;28;20030;-56
2021/12/25 05:01:46;;;;;;;8.90;6.13;;;;;;;;;;5020114;28;20414;-57
2021/12/25 05:04:19;;;;;;;10.45;6.55;;;;;;;;;;5026774;28;20054;-49
2021/12/25 05:06:44;;;;;;;7.80;7.05;;;;;;;;;;5028900;28;20026;-55
2021/12/25 05:09:10;;;;;;;9.45;6.90;;;;;;;;;;5026003;28;20104;-55
2021/12/25 05:11:36;;;;;;;11.15;6.70;;;;;;;;;;5022831;28;20451;-53
2021/12/25 05:14:01;;;;;;;13.60;7.22;;;;;;;;;;5023173;28;20533;-53
2021/12/25 05:16:27;;;;;;;14.95;7.63;;;;;;;;;;5025449;28;20482;-54
2021/12/25 05:18:54;;;;;;;14.48;7.22;;;;;;;;;;5026070;28;20076;-51
2021/12/25 05:21:20;;;;;;;10.68;7.07;;;;;;;;;;5027895;28;20021;-54
2021/12/25 05:23:47;;;;;;;12.23;7.63;;;;;;;;;;5022296;28;20021;-49
2021/12/25 05:26:13;;;;;;;12.80;7.43;;;;;;;;;;5027345;28;20044;-57
2021/12/25 05:28:41;;;;;;;8.25;7.43;;;;;;;;;;5028190;28;20029;-53
2021/12/25 05:31:09;;;;;;;15.25;8.13;;;;;;;;;;5024925;28;20068;-54
2021/12/25 05:33:36;;;;;;;10.35;7.55;;;;;;;;;;5020425;28;20469;-56
2021/12/25 05:36:03;;;;;;;9.68;7.38;;;;;;;;;;5018517;28;20030;-54
2021/12/25 05:38:29;;;;;;;15.13;7.80;;;;;;;;;;5024571;28;20037;-56
2021/12/25 05:40:55;;;;;;;13.55;7.50;;;;;;;;;;5026465;28;20484;-55
2021/12/25 05:43:21;;;;;;;10.48;7.60;;;;;;;;;;5026401;28;20058;-57
2021/12/25 05:45:46;;;;;;;9.80;7.57;;;;;;;;;;5021947;28;20040;-55
2021/12/25 05:48:12;;;;;;;11.50;8.23;;;;;;;;;;5026906;28;20120;-54
2021/12/25 05:50:38;;;;;;;9.45;7.13;;;;;;;;;;5044577;28;20041;-53
2021/12/25 05:53:05;;;;;;;12.32;8.43;;;;;;;;;;5022015;28;20076;-54
2021/12/25 05:55:32;;;;;;;12.07;7.95;;;;;;;;;;5022881;28;20470;-57
2021/12/25 05:57:59;;;;;;;12.95;7.57;;;;;;;;;;5028554;28;20056;-55
2021/12/25 06:00:25;;;;;;;10.18;7.63;;;;;;;;;;5025301;28;20111;-52
2021/12/25 06:02:51;;;;;;;13.52;7.60;;;;;;;;;;5028146;28;20026;-51
2021/12/25 06:05:17;;;;;;;12.88;7.22;;;;;;;;;;5021304;28;20017;-51
2021/12/25 06:07:43;;;;;;;7.95;6.40;;;;;;;;;;5023116;28;20507;-51
2021/12/25 06:10:10;;;;;;;7.40;6.57;;;;;;;;;;5027560;28;20104;-56
2021/12/25 06:12:38;;;;;;;10.63;7.05;;;;;;;;;;5022163;28;20053;-53
2021/12/25 06:15:06;;;;;;;10.23;6.35;;;;;;;;;;5025439;28;20039;-52
2021/12/25 06:17:32;;;;;;;6.43;5.00;;;;;;;;;;5029028;28;20071;-51
2021/12/25 06:19:58;;;;;;;6.13;4.95;;;;;;;;;;5020857;28;20538;-51
2021/12/25 06:22:24;;;;;;;10.10;4.80;;;;;;;;;;5026052;28;20068;-51
2021/12/25 06:24:49;;;;;;;8.02;4.35;;;;;;;;;;5018303;28;20021;-55
2021/12/25 06:27:17;;;;;;;11.93;5.05;;;;;;;;;;5024035;28;20087;-51
2021/12/25 06:29:43;;;;;;;8.07;4.47;;;;;;;;;;5022578;28;20029;-50
2021/12/25 06:32:09;;;;;;;7.30;4.05;;;;;;;;;;5022106;28;20033;-54
2021/12/25 06:34:35;;;;;;;7.68;4.50;;;;;;;;;;5021614;28;20037;-53
2021/12/25 06:37:01;;;;;;;8.27;4.50;;;;;;;;;;5022903;28;20120;-54
2021/12/25 06:39:27;;;;;;;5.72;4.57;;;;;;;;;;5019181;28;20406;-58
2021/12/25 06:41:53;;;;;;;9.30;4.85;;;;;;;;;;5020696;28;20116;-55
2021/12/25 06:44:20;;;;;;;7.72;5.00;;;;;;;;;;5024697;28;20064;-55
2021/12/25 06:46:46;;;;;;;7.63;5.93;;;;;;;;;;5022841;28;20034;-54
2021/12/25 06:49:12;;;;;;;15.07;7.18;;;;;;;;;;5028427;28;20364;-55
2021/12/25 06:51:38;;;;;;;29.08;13.40;;;;;;;;;;5023315;28;20441;-59
2021/12/25 06:54:04;;;;;;;14.93;10.55;;;;;;;;;;5022547;28;20109;-57
2021/12/25 06:56:30;;;;;;;14.95;9.85;;;;;;;;;;5025890;28;20103;-56
2021/12/25 06:58:56;;;;;;;17.10;7.20;;;;;;;;;;5017901;28;20053;-56
2021/12/25 07:01:22;;;;;;;9.50;6.72;;;;;;;;;;5028276;28;20021;-58
2021/12/25 07:03:47;;;;;;;7.95;5.72;;;;;;;;;;5023004;28;20565;-54
2021/12/25 07:06:13;;;;;;;12.68;6.72;;;;;;;;;;5021320;28;20022;-55
2021/12/25 07:08:39;;;;;;;13.77;6.63;;;;;;;;;;5024549;28;20030;-59
2021/12/25 07:11:05;;;;;;;17.42;7.75;;;;;;;;;;5023245;28;20041;-58
2021/12/25 07:13:30;;;;;;;9.98;7.53;;;;;;;;;;5024041;28;20072;-58
2021/12/25 07:15:56;;;;;;;19.35;8.40;;;;;;;;;;5023020;28;20025;-55
2021/12/25 07:18:22;;;;;;;15.30;9.20;;;;;;;;;;5027729;28;20073;-55
2021/12/25 07:20:50;;;;;;;10.00;7.60;;;;;;;;;;5024045;28;20030;-57
2021/12/25 07:23:17;;;;;;;7.55;5.75;;;;;;;;;;5018939;28;20030;-55
2021/12/25 07:25:43;;;;;;;7.97;5.18;;;;;;;;;;5019396;28;20036;-54
2021/12/25 07:28:09;;;;;;;7.40;5.70;;;;;;;;;;5021894;28;20041;-57
2021/12/25 07:30:35;;;;;;;6.85;6.15;;;;;;;;;;5020790;28;20037;-57
2021/12/25 07:33:00;;;;;;;13.70;6.30;;;;;;;;;;5024360;28;20048;-57
2021/12/25 07:35:27;;;;;;;13.77;5.97;;;;;;;;;;5023901;28;20112;-57
2021/12/25 07:37:53;;;;;;;7.55;5.75;;;;;;;;;;5022895;28;20517;-58
2021/12/25 07:40:19;;;;;;;6.85;4.78;;;;;;;;;;5016814;28;20068;-60
2021/12/25 07:42:45;;;;;;;5.15;4.30;;;;;;;;;;5022664;28;20509;-58
2021/12/25 07:45:11;;;;;;;8.48;4.05;;;;;;;;;;5027102;28;20029;-59
2021/12/25 07:47:45;;;;;;;5.97;5.47;;;;;;;;;;5021532;28;20069;-59
2021/12/25 07:50:10;;;;;;;8.90;8.00;;;;;;;;;;5021780;28;20556;-59
2021/12/25 07:52:36;;;;;;;15.95;13.10;;;;;;;;;;5018539;28;20025;-58
2021/12/25 07:55:03;;;;;;;18.55;13.40;;;;;;;;;;5019149;28;20360;-57
2021/12/25 07:57:28;;;;;;;10.80;7.28;;;;;;;;;;5026459;28;20030;-58
2021/12/25 07:59:55;;;;;;;6.40;5.47;;;;;;;;;;5024891;28;20331;-57
2021/12/25 08:02:21;;;;;;;6.85;5.40;;;;;;;;;;5022644;28;20029;-55
2021/12/25 08:04:47;;;;;;;6.15;5.55;;;;;;;;;;5018680;28;20138;-51
2021/12/25 08:07:12;;;;;;;4.35;3.95;;;;;;;;;;5015053;28;20359;-57
2021/12/25 08:09:38;;;;;;;3.58;3.38;;;;;;;;;;5017028;28;20071;-56
2021/12/25 08:12:05;;;;;;;4.18;2.88;;;;;;;;;;5020799;28;20033;-52
2021/12/25 08:14:32;;;;;;;3.38;3.08;;;;;;;;;;5016258;28;20067;-56
2021/12/25 08:17:00;;;;;;;3.63;3.28;;;;;;;;;;5021005;28;20033;-59
2021/12/25 08:19:26;;;;;;;3.15;2.92;;;;;;;;;;5015804;28;20053;-59
2021/12/25 08:21:52;;;;;;;7.63;3.17;;;;;;;;;;5014791;28;20357;-58
2021/12/25 08:24:18;;;;;;;2.90;2.70;;;;;;;;;;5021794;28;20121;-58
2021/12/25 08:26:46;;;;;;;3.53;3.20;;;;;;;;;;5022330;28;20029;-58
2021/12/25 08:29:12;;;;;;;3.20;2.90;;;;;;;;;;5026006;28;20091;-59
2021/12/25 08:31:41;;;;;;;4.05;3.40;;;;;;;;;;5018522;28;20072;-56
2021/12/25 08:34:08;;;;;;;3.25;2.95;;;;;;;;;;5016515;28;20040;-59
2021/12/25 08:36:35;;;;;;;3.38;3.08;;;;;;;;;;5019005;28;20037;-58
2021/12/25 08:39:01;;;;;;;5.00;3.38;;;;;;;;;;5023142;28;20048;-55
2021/12/25 08:41:30;;;;;;;4.22;3.33;;;;;;;;;;5020779;28;20029;-56
2021/12/25 08:44:00;;;;;;;5.00;3.45;;;;;;;;;;5020748;28;20083;-56
2021/12/25 08:49:16;;;;;;;2.95;2.60;;;;;;;;;;5020170;28;20421;-57
2021/12/25 08:51:45;;;;;;;4.90;2.92;;;;;;;;;;5022302;28;20033;-55
2021/12/25 08:54:12;;;;;;;2.92;2.72;;;;;;;;;;5021514;28;20056;-58
2021/12/25 08:56:39;;;;;;;2.55;2.35;;;;;;;;;;5021211;28;20406;-59
2021/12/25 08:59:04;;;;;;;5.72;4.20;;;;;;;;;;5019478;28;20076;-57
2021/12/25 09:01:30;;;;;;;6.13;5.35;;;;;;;;;;5021842;28;20152;-59
2021/12/25 09:03:57;;;;;;;3.53;2.60;;;;;;;;;;5018917;28;20028;-54
2021/12/25 09:06:23;;;;;;;3.17;2.10;;;;;;;;;;5020419;28;20080;-58
2021/12/25 09:08:49;;;;;;;3.97;2.45;;;;;;;;;;5021447;28;20080;-58
2021/12/25 09:11:17;;;;;;;5.47;2.83;;;;;;;;;;5021847;28;20041;-57
2021/12/25 09:13:43;;;;;;;5.78;3.28;;;;;;;;;;5021011;28;20046;-54
2021/12/25 09:16:09;;;;;;;6.28;3.38;;;;;;;;;;5020632;28;20370;-54
2021/12/25 09:18:35;;;;;;;5.20;3.00;;;;;;;;;;5022892;28;20128;-59
2021/12/25 09:21:00;;;;;;;5.38;3.30;;;;;;;;;;5019966;28;20046;-58
2021/12/25 09:23:26;;;;;;;4.65;3.13;;;;;;;;;;5022106;28;20430;-59
2021/12/25 09:25:52;;;;;;;4.43;3.30;;;;;;;;;;5021131;28;20371;-55
2021/12/25 09:28:18;;;;;;;4.85;3.15;;;;;;;;;;5021116;28;20477;-59
2021/12/25 09:30:44;;;;;;;4.20;3.50;;;;;;;;;;5025010;28;20037;-58
2021/12/25 09:33:11;;;;;;;4.35;3.03;;;;;;;;;;5026187;28;20113;-57
2021/12/25 09:35:37;;;;;;;1.92;1.77;;;;;;;;;;5020474;28;20034;-58
2021/12/25 09:38:03;;;;;;;3.13;2.30;;;;;;;;;;5020962;28;20029;-56
2021/12/25 09:40:29;;;;;;;6.13;2.55;;;;;;;;;;5022889;28;20576;-53
2021/12/25 09:42:55;;;;;;;6.93;2.60;;;;;;;;;;5025372;28;20037;-56
2021/12/25 09:45:22;;;;;;;2.83;2.10;;;;;;;;;;5022126;28;20120;-54
2021/12/25 09:47:49;;;;;;;2.65;2.45;;;;;;;;;;5026047;28;20113;-55
2021/12/25 09:50:15;;;;;;;3.83;2.20;;;;;;;;;;5021862;28;20033;-56
2021/12/25 09:52:42;;;;;;;2.25;2.05;;;;;;;;;;5017631;28;20051;-57
2021/12/25 09:55:09;;;;;;;4.47;2.70;;;;;;;;;;5021075;28;20048;-58
2021/12/25 09:57:36;;;;;;;4.03;2.50;;;;;;;;;;5022198;28;20030;-58
2021/12/25 10:00:12;;;;;;;2.70;2.28;;;;;;;;;;5023298;28;20037;-58
2021/12/25 10:02:55;;;;;;;3.15;2.22;;;;;;;;;;5024279;28;20057;-57
2021/12/25 10:05:28;;;;;;;2.25;1.85;;;;;;;;;;5019769;28;20088;-58
2021/12/25 10:08:04;;;;;;;2.15;1.98;;;;;;;;;;5024342;28;20418;-57
2021/12/25 10:10:46;;;;;;;2.17;2.08;;;;;;;;;;5024020;28;20034;-59
2021/12/25 10:13:23;;;;;;;2.00;1.80;;;;;;;;;;5021546;28;20040;-58
2021/12/25 10:15:55;;;;;;;1.70;1.60;;;;;;;;;;5024701;28;20036;-59
2021/12/25 10:18:34;;;;;;;2.17;2.05;;;;;;;;;;5024913;28;20042;-57
2021/12/25 10:21:28;;;;;;;1.58;1.40;;;;;;;;;;5019728;28;20092;-59
2021/12/25 10:24:05;;;;;;;3.83;1.65;;;;;;;;;;5021151;28;20065;-60
2021/12/25 10:26:32;;;;;;;1.55;1.45;;;;;;;;;;5019594;28;20112;-59
2021/12/25 10:28:57;;;;;;;1.85;1.75;;;;;;;;;;5021973;28;20041;-59
2021/12/25 10:31:33;;;;;;;2.15;1.95;;;;;;;;;;5016614;28;20025;-59
2021/12/25 10:34:00;;;;;;;2.00;1.67;;;;;;;;;;5025002;28;20032;-57
2021/12/25 10:36:32;;;;;;;1.70;1.60;;;;;;;;;;5019495;28;20848;-60
2021/12/25 10:38:58;;;;;;;1.50;1.10;;;;;;;;;;5021856;28;20041;-59
2021/12/25 10:41:24;;;;;;;0.95;0.95;;;;;;;;;;5024494;28;20412;-55
2021/12/25 10:44:08;;;;;;;1.20;1.10;;;;;;;;;;5020942;28;20079;-59
2021/12/25 10:47:20;;;;;;;1.50;1.40;;;;;;;;;;5022376;28;20034;-57
2021/12/25 10:49:50;;;;;;;6.45;1.70;;;;;;;;;;5020316;28;20099;-59
2021/12/25 10:52:19;;;;;;;1.70;1.60;;;;;;;;;;5021999;28;20045;-60
2021/12/25 10:54:51;;;;;;;3.22;1.50;;;;;;;;;;5020552;28;20037;-58
2021/12/25 10:57:30;;;;;;;2.72;1.40;;;;;;;;;;5023249;28;20037;-60
2021/12/25 10:59:56;;;;;;;1.83;1.67;;;;;;;;;;5016758;28;20041;-60
2021/12/25 11:02:38;;;;;;;2.85;2.55;;;;;;;;;;5026700;28;20032;-57
2021/12/25 11:05:27;;;;;;;3.05;2.75;;;;;;;;;;5027451;28;20029;-57
2021/12/25 11:08:17;;;;;;;2.10;2.00;;;;;;;;;;5039380;28;20463;-59
2021/12/25 11:10:48;;;;;;;3.72;1.65;;;;;;;;;;5016594;28;20514;-59
2021/12/25 11:13:24;;;;;;;2.17;2.03;;;;;;;;;;5017144;28;20056;-58
2021/12/25 11:15:56;;;;;;;2.45;1.27;;;;;;;;;;5019302;28;20041;-57
2021/12/25 11:18:22;;;;;;;;;;;;;;;;;;5023831;28;20150;-59
2021/12/25 11:20:47;;;;;;;1.05;0.95;;;;;;;;;;5020244;28;20436;-59
2021/12/25 11:23:15;;;;;;;1.73;1.52;;;;;;;;;;5020192;28;20029;-57
2021/12/25 11:25:42;;;;;;;1.60;1.50;;;;;;;;;;5022101;28;20080;-57
2021/12/25 11:28:12;;;;;;;2.42;2.22;;;;;;;;;;5024574;28;20044;-58
2021/12/25 11:30:45;;;;;;;2.47;1.17;;;;;;;;;;5019137;28;20033;-57
2021/12/25 11:33:11;;;;;;;1.40;1.30;;;;;;;;;;5025248;28;20124;-58
2021/12/25 11:35:38;;;;;;;1.80;1.63;;;;;;;;;;5025619;28;20156;-59
2021/12/25 11:38:06;;;;;;;0.70;0.70;;;;;;;;;;5020279;28;20044;-58
2021/12/25 11:40:35;;;;;;;0.93;0.90;;;;;;;;;;5023967;28;20083;-58
2021/12/25 11:43:04;;;;;;;1.05;0.80;;;;;;;;;;5023278;28;20592;-56
2021/12/25 11:45:36;;;;;;;3.03;0.90;;;;;;;;;;5025660;28;20033;-58
2021/12/25 11:48:15;;;;;;;0.70;0.70;;;;;;;;;;5019751;28;20044;-58
2021/12/25 11:50:45;;;;;;;2.45;0.80;;;;;;;;;;5024630;28;20091;-58
2021/12/25 11:53:42;;;;;;;2.60;0.73;;;;;;;;;;5021995;28;20034;-56
2021/12/25 11:59:00;;;;;;;4.28;1.00;;;;;;;;;;5026972;28;20525;-58
2021/12/25 12:01:33;;;;;;;2.25;1.30;;;;;;;;;;5026182;28;20037;-59
2021/12/25 12:03:58;;;;;;;;;;;;;;;;;;5022887;28;20040;-57
2021/12/25 12:06:46;;;;;;;0.80;0.80;;;;;;;;;;5022103;28;19918;-54
2021/12/25 12:09:13;;;;;;;1.05;1.05;;;;;;;;;;5020715;28;20034;-57
2021/12/25 12:11:44;;;;;;;5.18;1.05;;;;;;;;;;5018251;28;20115;-58
2021/12/25 12:14:15;;;;;;;0.70;0.70;;;;;;;;;;5024628;28;20433;-56
2021/12/25 12:16:51;;;;;;;1.05;1.05;;;;;;;;;;5017480;28;20378;-55
2021/12/25 12:19:52;;;;;;;0.82;0.82;;;;;;;;;;5019262;28;20065;-58
2021/12/25 12:22:31;;;;;;;2.58;2.38;;;;;;;;;;4999918;28;20067;-58
2021/12/25 12:27:35;;;;;;;1.02;1.02;;;;;;;;;;5000031;28;20052;-57
2021/12/25 12:30:11;;;;;;;1.00;1.00;;;;;;;;;;4999361;28;20139;-59
2021/12/25 12:32:45;;;;;;;1.88;1.00;;;;;;;;;;5000071;28;20030;-58
2021/12/25 12:35:30;;;;;;;1.30;1.30;;;;;;;;;;4998604;28;20112;-59
2021/12/25 12:38:40;;;;;;;1.10;1.10;;;;;;;;;;4999934;28;20038;-59
2021/12/25 12:41:21;;;;;;;0.93;0.93;;;;;;;;;;4997669;28;20099;-58
2021/12/25 12:44:08;;;;;;;3.53;2.05;;;;;;;;;;4997633;28;20072;-58
2021/12/25 12:46:50;;;;;;;8.02;3.80;;;;;;;;;;5002183;28;20034;-58
2021/12/25 12:49:24;;;;;;;1.67;1.58;;;;;;;;;;4993797;28;20131;-59
2021/12/25 12:52:13;;;;;;;5.10;2.28;;;;;;;;;;4999547;28;20035;-57
2021/12/25 12:54:53;;;;;;;1.63;1.52;;;;;;;;;;5002448;28;20033;-56
2021/12/25 12:57:40;;;;;;;1.20;1.10;;;;;;;;;;4998027;28;20087;-59
2021/12/25 13:00:20;;;;;;;2.67;0.98;;;;;;;;;;5018480;28;20041;-59
2021/12/25 13:02:50;;;;;;;2.10;0.85;;;;;;;;;;5020758;28;20030;-57
2021/12/25 13:05:28;;;;;;;1.00;0.90;;;;;;;;;;5055245;28;20406;-55
2021/12/25 13:07:56;;;;;;;1.10;1.08;;;;;;;;;;5022048;28;20033;-56
2021/12/25 13:13:07;;;;;;;1.00;1.00;;;;;;;;;;5022230;28;20356;-58
2021/12/25 13:15:34;;;;;;;1.00;1.00;;;;;;;;;;5022770;28;20042;-58
2021/12/25 13:18:03;;;;;;;2.90;1.10;;;;;;;;;;5024096;28;20034;-59
2021/12/25 13:20:48;;;;;;;1.38;1.10;;;;;;;;;;5020479;28;20041;-58
2021/12/25 13:23:18;;;;;;;1.63;1.42;;;;;;;;;;5026299;28;20025;-58
2021/12/25 13:25:47;;;;;;;1.45;1.30;;;;;;;;;;5027292;28;20029;-58
2021/12/25 13:28:14;;;;;;;1.50;1.40;;;;;;;;;;5021488;28;20510;-58
2021/12/25 13:30:44;;;;;;;1.15;1.05;;;;;;;;;;5028755;28;20107;-58
2021/12/25 13:33:12;;;;;;;1.98;1.00;;;;;;;;;;5028530;28;20030;-58
2021/12/25 13:35:39;;;;;;;1.33;1.23;;;;;;;;;;5030257;28;20091;-57
2021/12/25 13:38:05;;;;;;;5.45;1.00;;;;;;;;;;5021454;28;20021;-58
2021/12/25 13:40:31;;;;;;;2.55;2.35;;;;;;;;;;5020656;28;20454;-59
2021/12/25 13:43:09;;;;;;;3.08;2.50;;;;;;;;;;5020372;28;20021;-56
2021/12/25 13:45:36;;;;;;;1.98;1.88;;;;;;;;;;5030272;28;20053;-58
2021/12/25 13:48:04;;;;;;;1.40;1.35;;;;;;;;;;5025768;28;20456;-58
2021/12/25 13:50:30;;;;;;;1.58;1.48;;;;;;;;;;5027245;28;20030;-59
2021/12/25 13:52:59;;;;;;;1.30;1.20;;;;;;;;;;5027021;28;20071;-58
2021/12/25 13:55:30;;;;;;;1.45;1.35;;;;;;;;;;5021448;28;20030;-59
2021/12/25 13:58:05;;;;;;;1.23;1.23;;;;;;;;;;5027921;28;20390;-57
2021/12/25 14:00:38;;;;;;;1.60;1.48;;;;;;;;;;5026074;28;20083;-57
2021/12/25 14:03:08;;;;;;;1.25;1.15;;;;;;;;;;5025405;28;20486;-58
2021/12/25 14:05:37;;;;;;;2.90;1.40;;;;;;;;;;5028662;28;20120;-59
2021/12/25 14:08:04;;;;;;;1.70;1.10;;;;;;;;;;5027738;28;20726;-58
2021/12/25 14:10:32;;;;;;;1.40;1.30;;;;;;;;;;5024315;28;20437;-57
2021/12/25 14:13:00;;;;;;;5.68;1.67;;;;;;;;;;5022789;28;20072;-59
2021/12/25 14:15:33;;;;;;;1.42;1.33;;;;;;;;;;5028884;28;20029;-57
2021/12/25 14:18:01;;;;;;;1.23;1.23;;;;;;;;;;5026261;28;20017;-55
2021/12/25 14:20:30;;;;;;;4.38;1.70;;;;;;;;;;5025549;28;20041;-57
2021/12/25 14:23:09;;;;;;;1.60;1.50;;;;;;;;;;5026333;28;20478;-58
2021/12/25 14:25:41;;;;;;;1.85;1.35;;;;;;;;;;5024658;28;20530;-58
2021/12/25 14:28:16;;;;;;;2.28;1.80;;;;;;;;;;5026010;28;20025;-57
2021/12/25 14:31:01;;;;;;;3.58;1.98;;;;;;;;;;5023794;28;20487;-58
2021/12/25 14:33:28;;;;;;;2.63;2.13;;;;;;;;;;5021269;28;20056;-57
2021/12/25 14:35:54;;;;;;;2.33;2.13;;;;;;;;;;5022862;28;20490;-57
2021/12/25 14:38:21;;;;;;;3.95;2.30;;;;;;;;;;5025440;28;20076;-58
2021/12/25 14:40:49;;;;;;;2.50;2.25;;;;;;;;;;5019643;28;20112;-59
2021/12/25 14:43:17;;;;;;;2.58;2.33;;;;;;;;;;5021085;28;20025;-58
2021/12/25 14:45:54;;;;;;;3.55;2.78;;;;;;;;;;5022037;28;20104;-58
2021/12/25 14:48:25;;;;;;;3.97;3.15;;;;;;;;;;5025825;28;20025;-59
2021/12/25 14:50:56;;;;;;;3.83;3.38;;;;;;;;;;5027441;28;20039;-59
2021/12/25 14:53:22;;;;;;;3.35;3.00;;;;;;;;;;5024262;28;20065;-58
2021/12/25 14:55:52;;;;;;;4.50;4.10;;;;;;;;;;5022127;28;20091;-58
2021/12/25 14:58:22;;;;;;;2.28;2.10;;;;;;;;;;5022211;28;20033;-59
2021/12/25 15:00:51;;;;;;;3.85;2.25;;;;;;;;;;5027639;28;20049;-59
2021/12/25 15:03:22;;;;;;;4.65;2.20;;;;;;;;;;5021382;28;20036;-59
2021/12/25 15:05:53;;;;;;;2.22;2.05;;;;;;;;;;5021713;28;20072;-58
2021/12/25 15:08:25;;;;;;;2.42;2.22;;;;;;;;;;5020728;28;20026;-58
2021/12/25 15:10:53;;;;;;;3.85;3.55;;;;;;;;;;5021639;28;20359;-58
2021/12/25 15:13:22;;;;;;;5.57;3.45;;;;;;;;;;5022496;28;20037;-59
2021/12/25 15:15:49;;;;;;;3.45;2.95;;;;;;;;;;5026362;28;20033;-58
2021/12/25 15:18:30;;;;;;;3.03;2.78;;;;;;;;;;5023366;28;20052;-58
2021/12/25 15:21:19;;;;;;;2.65;2.45;;;;;;;;;;5022111;28;20494;-58
2021/12/25 15:23:46;;;;;;;2.70;2.50;;;;;;;;;;5020653;28;20029;-59
2021/12/25 15:26:16;;;;;;;5.13;2.80;;;;;;;;;;5019846;28;20037;-60
2021/12/25 15:28:53;;;;;;;3.10;2.88;;;;;;;;;;5032100;28;20033;-56
2021/12/25 15:31:25;;;;;;;3.08;2.88;;;;;;;;;;5017916;28;20041;-59
2021/12/25 15:33:55;;;;;;;3.35;2.75;;;;;;;;;;5026522;28;20498;-57
2021/12/25 15:36:22;;;;;;;3.00;2.72;;;;;;;;;;5022905;28;20041;-59
2021/12/25 15:38:49;;;;;;;5.97;3.28;;;;;;;;;;5024552;28;20421;-59
2021/12/25 15:41:15;;;;;;;3.55;2.92;;;;;;;;;;5021735;28;20040;-58
2021/12/25 15:43:42;;;;;;;2.88;2.67;;;;;;;;;;5026175;28;20534;-59
2021/12/25 15:46:08;;;;;;;3.10;2.80;;;;;;;;;;5021961;28;20379;-58
2021/12/25 15:48:36;;;;;;;3.58;3.20;;;;;;;;;;5021744;28;20546;-59
2021/12/25 15:51:04;;;;;;;3.38;3.10;;;;;;;;;;5023092;28;20092;-59
2021/12/25 15:53:30;;;;;;;3.38;3.08;;;;;;;;;;5018446;28;20125;-59
2021/12/25 15:55:56;;;;;;;3.65;3.35;;;;;;;;;;5027991;28;20116;-58
2021/12/25 15:58:22;;;;;;;3.97;3.05;;;;;;;;;;5021953;28;20197;-59
2021/12/25 16:00:51;;;;;;;3.90;3.30;;;;;;;;;;5018305;28;20037;-59
2021/12/25 16:03:17;;;;;;;3.80;3.50;;;;;;;;;;5019927;28;20100;-59
2021/12/25 16:05:44;;;;;;;3.60;3.33;;;;;;;;;;5022672;28;20028;-59
2021/12/25 16:08:11;;;;;;;6.03;3.45;;;;;;;;;;5020696;28;20428;-59
2021/12/25 16:10:38;;;;;;;5.32;3.72;;;;;;;;;;5024070;28;20049;-58
2021/12/25 16:13:06;;;;;;;4.68;3.35;;;;;;;;;;5023451;28;20032;-56
2021/12/25 16:15:32;;;;;;;6.60;3.75;;;;;;;;;;5023893;28;20148;-59
2021/12/25 16:17:57;;;;;;;6.38;5.75;;;;;;;;;;5024241;28;20025;-57
2021/12/25 16:20:23;;;;;;;9.75;6.90;;;;;;;;;;5022404;28;20453;-58
2021/12/25 16:22:49;;;;;;;12.02;7.72;;;;;;;;;;5021075;28;20425;-59